Time;durP1;ratioP1;P1;durP2;ratioP2;P2;SDS_P1;SDS_P2;PMS_P1;PMS_P2;Temp;Humidity;BMP_temperature;BMP_pressure;BME280_temperature;BME280_humidity;BME280_pressure;Samples;Min_cycle;Max_cycle;Signal;HPM_P1;HPM_P2
2024/04/09 00:01:27;;;;;;;17.45;4.57;;;21.50;64.30;;;;;;5500466;26;19994;-58
2024/04/09 00:03:53;;;;;;;17.02;4.72;;;21.50;64.40;;;;;;5468936;26;20055;-58
2024/04/09 00:06:19;;;;;;;18.23;4.82;;;21.50;65.00;;;;;;5468793;26;20005;-58
2024/04/09 00:08:45;;;;;;;19.45;5.10;;;21.50;64.50;;;;;;5500984;26;19998;-58
2024/04/09 00:11:21;;;;;;;19.67;4.82;;;21.50;64.40;;;;;;5468684;26;20072;-58
2024/04/09 00:13:59;;;;;;;18.85;4.18;;;21.50;64.60;;;;;;5440638;26;20369;-58
2024/04/09 00:16:25;;;;;;;22.95;5.40;;;21.50;64.60;;;;;;5471928;26;20059;-58
2024/04/09 00:18:53;;;;;;;19.65;4.53;;;21.50;64.90;;;;;;5468807;26;20006;-58
2024/04/09 00:21:20;;;;;;;15.93;4.70;;;21.50;64.30;;;;;;5440044;26;19995;-58
2024/04/09 00:23:47;;;;;;;15.73;3.63;;;21.40;63.70;;;;;;5468768;26;20090;-58
2024/04/09 00:26:13;;;;;;;15.25;4.03;;;21.40;64.40;;;;;;5409475;26;20005;-58
2024/04/09 00:28:39;;;;;;;16.95;4.43;;;21.40;64.80;;;;;;5468492;26;20017;-58
2024/04/09 00:31:05;;;;;;;17.90;4.28;;;21.40;64.80;;;;;;5468203;26;19998;-58
2024/04/09 00:33:30;;;;;;;16.05;3.92;;;21.40;64.50;;;;;;5438394;26;20081;-58
2024/04/09 00:35:56;;;;;;;18.95;5.05;;;21.40;65.20;;;;;;5438243;26;19994;-58
2024/04/09 00:38:23;;;;;;;12.95;4.05;;;21.40;64.50;;;;;;5468646;26;20005;-58
2024/04/09 00:40:49;;;;;;;15.93;4.20;;;21.40;64.60;;;;;;5408849;26;20294;-58
2024/04/09 00:43:15;;;;;;;28.88;4.25;;;21.40;64.60;;;;;;5500287;26;20074;-58
2024/04/09 00:45:43;;;;;;;17.17;4.40;;;21.40;64.50;;;;;;5500206;26;20002;-58
2024/04/09 00:48:09;;;;;;;12.55;3.92;;;21.40;64.10;;;;;;5439115;26;19997;-58
2024/04/09 00:50:35;;;;;;;14.90;3.47;;;21.30;63.90;;;;;;5438201;26;19990;-58
2024/04/09 00:53:00;;;;;;;20.33;4.53;;;21.30;63.90;;;;;;5468125;26;19990;-58
2024/04/09 00:55:26;;;;;;;17.73;4.45;;;21.30;63.80;;;;;;5500157;26;20045;-58
2024/04/09 00:57:52;;;;;;;23.52;3.97;;;21.30;63.60;;;;;;5468308;26;19998;-58
2024/04/09 01:00:21;;;;;;;13.02;3.83;;;21.30;63.80;;;;;;5469181;26;19998;-58
2024/04/09 01:02:53;;;;;;;15.48;3.80;;;21.30;64.50;;;;;;5499425;26;20005;-58
2024/04/09 01:05:19;;;;;;;13.43;3.95;;;21.30;63.60;;;;;;5469400;26;20017;-58
2024/04/09 01:07:44;;;;;;;17.05;4.28;;;21.30;63.60;;;;;;5468006;26;19994;-58
2024/04/09 01:10:10;;;;;;;14.05;3.67;;;21.30;64.20;;;;;;5498024;26;19998;-58
2024/04/09 01:12:36;;;;;;;15.25;3.85;;;21.30;64.50;;;;;;5466414;26;19990;-58
2024/04/09 01:15:02;;;;;;;19.55;4.32;;;21.30;64.60;;;;;;5467703;26;20002;-58
2024/04/09 01:17:28;;;;;;;26.98;4.60;;;21.20;64.40;;;;;;5438018;26;20010;-58
2024/04/09 01:19:54;;;;;;;18.38;4.13;;;21.20;64.20;;;;;;5438465;26;20074;-57
2024/04/09 01:22:20;;;;;;;19.85;4.18;;;21.20;64.40;;;;;;5467744;26;20009;-58
2024/04/09 01:24:47;;;;;;;13.32;3.78;;;21.20;64.20;;;;;;5499828;26;20033;-58
2024/04/09 01:27:14;;;;;;;15.18;4.47;;;21.20;64.10;;;;;;5438290;26;20457;-58
2024/04/09 01:29:41;;;;;;;19.52;4.20;;;21.20;64.20;;;;;;5499798;26;19998;-58
2024/04/09 01:32:07;;;;;;;13.45;3.70;;;21.20;64.60;;;;;;5468259;26;20036;-58
2024/04/09 01:34:35;;;;;;;16.10;4.32;;;21.10;64.30;;;;;;5437419;26;20006;-58
2024/04/09 01:37:01;;;;;;;15.77;3.40;;;21.10;63.80;;;;;;5438761;26;20009;-57
2024/04/09 01:39:27;;;;;;;14.18;4.07;;;21.20;63.90;;;;;;5467539;26;20043;-58
2024/04/09 01:41:53;;;;;;;18.23;4.10;;;21.10;64.40;;;;;;5499558;26;19990;-58
2024/04/09 01:44:19;;;;;;;16.58;4.25;;;21.10;64.50;;;;;;5467535;26;20074;-58
2024/04/09 01:46:47;;;;;;;14.25;3.88;;;21.10;65.30;;;;;;5499179;26;20006;-58
2024/04/09 01:49:12;;;;;;;19.63;3.95;;;21.00;64.50;;;;;;5499358;26;19998;-58
2024/04/09 01:51:38;;;;;;;12.52;3.53;;;21.00;64.60;;;;;;5499236;26;20010;-58
2024/04/09 01:54:04;;;;;;;13.23;3.78;;;21.00;64.70;;;;;;5466937;26;20010;-58
2024/04/09 01:56:30;;;;;;;19.65;4.57;;;21.00;64.70;;;;;;5466869;26;20004;-58
2024/04/09 01:58:56;;;;;;;17.17;3.90;;;21.00;64.90;;;;;;5497314;26;19994;-58
2024/04/09 02:01:21;;;;;;;13.00;3.72;;;21.00;64.50;;;;;;5466935;26;20073;-58
2024/04/09 02:03:49;;;;;;;14.02;4.63;;;21.00;64.50;;;;;;5467011;26;20002;-58
2024/04/09 02:06:16;;;;;;;12.90;4.40;;;20.90;64.70;;;;;;5527808;26;19998;-58
2024/04/09 02:08:42;;;;;;;11.23;3.90;;;20.90;64.80;;;;;;5466910;26;20005;-58
2024/04/09 02:11:12;;;;;;;12.70;4.00;;;20.90;64.90;;;;;;5466633;26;20002;-58
2024/04/09 02:13:40;;;;;;;15.20;3.92;;;20.90;65.00;;;;;;5468079;26;20009;-58
2024/04/09 02:16:08;;;;;;;15.80;3.92;;;20.80;64.90;;;;;;5466527;26;19994;-58
2024/04/09 02:18:35;;;;;;;15.35;3.42;;;20.80;65.20;;;;;;5467527;26;20024;-58
2024/04/09 02:21:01;;;;;;;10.43;3.97;;;20.80;64.70;;;;;;5466820;26;20066;-58
2024/04/09 02:23:27;;;;;;;14.77;3.78;;;20.80;64.70;;;;;;5500417;26;20426;-58
2024/04/09 02:25:52;;;;;;;14.90;3.90;;;20.80;64.80;;;;;;5502363;26;19994;-58
2024/04/09 02:28:18;;;;;;;19.98;4.65;;;20.80;65.10;;;;;;5502617;26;20033;-57
2024/04/09 02:30:43;;;;;;;16.58;3.72;;;20.80;65.00;;;;;;5469936;26;20070;-58
2024/04/09 02:33:09;;;;;;;16.58;3.45;;;20.70;65.20;;;;;;5502478;26;20437;-58
2024/04/09 02:35:35;;;;;;;17.88;4.20;;;20.70;65.30;;;;;;5470006;26;19994;-58
2024/04/09 02:38:00;;;;;;;17.15;4.28;;;20.70;65.30;;;;;;5470149;26;20060;-58
2024/04/09 02:40:26;;;;;;;15.68;3.92;;;20.70;65.40;;;;;;5502354;26;20390;-58
2024/04/09 02:42:51;;;;;;;20.63;3.90;;;20.70;65.40;;;;;;5469900;26;20014;-58
2024/04/09 02:45:20;;;;;;;15.27;3.85;;;20.70;65.30;;;;;;5500022;26;20010;-58
2024/04/09 02:47:45;;;;;;;14.30;3.60;;;20.70;65.40;;;;;;5502131;26;20002;-58
2024/04/09 02:50:12;;;;;;;14.23;3.63;;;20.60;65.40;;;;;;5502116;26;19994;-58
2024/04/09 02:52:38;;;;;;;16.90;4.30;;;20.60;65.50;;;;;;5470160;26;20005;-58
2024/04/09 02:55:04;;;;;;;12.77;3.70;;;20.60;65.60;;;;;;5501837;26;20005;-58
2024/04/09 02:57:31;;;;;;;16.98;4.25;;;20.60;65.50;;;;;;5502141;26;19998;-58
2024/04/09 02:59:57;;;;;;;13.82;3.30;;;20.60;65.60;;;;;;5469788;26;19994;-58
2024/04/09 03:02:22;;;;;;;12.55;3.67;;;20.60;65.60;;;;;;5470257;26;19994;-58
2024/04/09 03:04:51;;;;;;;14.27;3.75;;;20.60;65.80;;;;;;5469566;26;20037;-58
2024/04/09 03:07:16;;;;;;;12.95;3.70;;;20.60;65.50;;;;;;5501939;26;20009;-58
2024/04/09 03:09:42;;;;;;;14.18;3.25;;;20.60;65.60;;;;;;5469380;26;20002;-58
2024/04/09 03:12:08;;;;;;;12.45;3.65;;;20.50;65.80;;;;;;5469643;26;20005;-58
2024/04/09 03:14:33;;;;;;;17.35;4.07;;;20.50;65.80;;;;;;5469323;26;19994;-58
2024/04/09 03:16:59;;;;;;;11.48;3.55;;;20.50;65.80;;;;;;5469585;26;20005;-58
2024/04/09 03:19:24;;;;;;;12.75;3.28;;;20.50;66.00;;;;;;5501748;26;20009;-58
2024/04/09 03:21:50;;;;;;;15.98;3.83;;;20.50;66.10;;;;;;5501722;26;20282;-58
2024/04/09 03:24:15;;;;;;;19.17;4.38;;;20.40;66.30;;;;;;5501707;26;20428;-58
2024/04/09 03:26:41;;;;;;;12.95;3.75;;;20.40;66.40;;;;;;5469290;26;19994;-58
2024/04/09 03:29:07;;;;;;;15.95;4.53;;;20.40;66.30;;;;;;5501456;26;20067;-58
2024/04/09 03:31:32;;;;;;;13.82;3.45;;;20.40;66.40;;;;;;5501464;26;20006;-58
2024/04/09 03:34:00;;;;;;;10.80;3.72;;;20.40;66.40;;;;;;5501315;26;19994;-57
2024/04/09 03:36:26;;;;;;;15.45;3.90;;;20.40;66.60;;;;;;5468757;26;19998;-58
2024/04/09 03:38:52;;;;;;;12.65;3.28;;;20.40;66.60;;;;;;5469097;26;19994;-58
2024/04/09 03:41:18;;;;;;;17.92;4.07;;;20.40;66.70;;;;;;5499596;26;20033;-58
2024/04/09 03:43:43;;;;;;;16.58;3.58;;;20.40;66.80;;;;;;5469032;26;20017;-58
2024/04/09 03:46:10;;;;;;;12.45;3.53;;;20.40;66.80;;;;;;5468672;26;19998;-58
2024/04/09 03:48:45;;;;;;;16.75;3.63;;;20.40;66.90;;;;;;5501227;26;20005;-58
2024/04/09 03:51:14;;;;;;;15.25;4.13;;;20.30;67.00;;;;;;5468794;26;20009;-58
2024/04/09 03:53:40;;;;;;;15.68;3.83;;;20.30;66.90;;;;;;5439720;26;19998;-58
2024/04/09 03:56:09;;;;;;;16.30;3.72;;;20.30;67.00;;;;;;5438761;26;20009;-58
2024/04/09 03:58:37;;;;;;;13.40;3.45;;;20.20;66.90;;;;;;5468695;26;19994;-58
2024/04/09 04:01:03;;;;;;;15.75;3.40;;;20.20;67.00;;;;;;5470238;26;20047;-58
2024/04/09 04:03:31;;;;;;;18.38;4.15;;;20.20;67.10;;;;;;5468418;26;19994;-58
2024/04/09 04:05:57;;;;;;;16.58;4.43;;;20.20;67.00;;;;;;5469139;26;19998;-58
2024/04/09 04:08:27;;;;;;;16.00;3.80;;;20.20;66.90;;;;;;5439941;26;20002;-58
2024/04/09 04:11:00;;;;;;;15.32;3.35;;;20.20;66.70;;;;;;5468869;26;20445;-58
2024/04/09 04:13:27;;;;;;;16.27;3.53;;;20.20;66.80;;;;;;5469030;26;20006;-58
2024/04/09 04:16:19;;;;;;;14.27;3.90;;;20.20;67.00;;;;;;5468319;26;20002;-58
2024/04/09 04:18:49;;;;;;;16.35;4.13;;;20.10;66.70;;;;;;5494064;26;20066;-58
2024/04/09 04:21:19;;;;;;;20.58;3.65;;;20.10;66.80;;;;;;5468574;26;20012;-58
2024/04/09 04:23:46;;;;;;;16.52;3.35;;;20.10;66.90;;;;;;5468490;26;19998;-58
2024/04/09 04:26:16;;;;;;;11.02;4.63;;;20.10;67.10;;;;;;5500491;26;20060;-58
2024/04/09 04:28:43;;;;;;;12.32;3.85;;;20.00;67.20;;;;;;5468538;26;19998;-58
2024/04/09 04:31:18;;;;;;;14.48;3.50;;;20.00;67.20;;;;;;5438371;26;20010;-58
2024/04/09 04:33:45;;;;;;;;;;;20.00;67.30;;;;;;5466466;26;20022;-58
2024/04/09 04:36:11;;;;;;;23.10;4.68;;;20.00;67.40;;;;;;5500530;26;19965;-58
2024/04/09 04:38:37;;;;;;;23.00;4.80;;;20.00;67.20;;;;;;5438640;26;19994;-58
2024/04/09 04:41:04;;;;;;;27.10;5.10;;;20.00;67.20;;;;;;5438131;26;20112;-58
2024/04/09 04:43:31;;;;;;;26.60;4.80;;;20.00;67.40;;;;;;5500547;26;20435;-58
2024/04/09 04:45:56;;;;;;;26.80;5.18;;;19.90;67.50;;;;;;5468227;26;20002;-58
2024/04/09 04:48:22;;;;;;;24.15;5.10;;;20.00;67.70;;;;;;5468396;26;19994;-58
2024/04/09 04:50:48;;;;;;;25.98;6.20;;;19.90;67.80;;;;;;5438334;26;20070;-58
2024/04/09 04:53:13;;;;;;;28.23;6.07;;;19.90;68.00;;;;;;5468283;26;20042;-58
2024/04/09 04:55:39;;;;;;;29.42;4.82;;;19.90;68.30;;;;;;5500259;26;19990;-58
2024/04/09 04:58:05;;;;;;;26.02;5.75;;;19.90;68.70;;;;;;5438184;26;20062;-58
2024/04/09 05:00:35;;;;;;;30.73;5.38;;;19.80;68.60;;;;;;5467636;25;20028;-58
2024/04/09 05:03:01;;;;;;;24.52;4.85;;;19.90;68.90;;;;;;5513802;25;20086;-58
2024/04/09 05:05:27;;;;;;;27.55;5.70;;;19.80;69.20;;;;;;5499828;26;20030;-58
2024/04/09 05:07:53;;;;;;;33.55;5.70;;;19.80;69.60;;;;;;5528660;26;19994;-58
2024/04/09 05:10:19;;;;;;;33.50;7.03;;;19.80;70.00;;;;;;5518471;25;19997;-58
2024/04/09 05:12:46;;;;;;;31.45;6.50;;;19.80;70.10;;;;;;5472558;26;20059;-58
2024/04/09 05:15:13;;;;;;;33.05;6.47;;;19.70;70.40;;;;;;5470356;26;20008;-58
2024/04/09 05:17:39;;;;;;;38.78;6.70;;;19.70;71.10;;;;;;5501487;26;19993;-58
2024/04/09 05:20:09;;;;;;;44.83;7.63;;;19.70;71.20;;;;;;5473476;26;19994;-58
2024/04/09 05:22:44;;;;;;;117.38;14.82;;;19.70;71.70;;;;;;5505166;26;20340;-58
2024/04/09 05:25:10;;;;;;;61.47;9.38;;;19.70;72.40;;;;;;5504589;26;19997;-58
2024/04/09 05:27:36;;;;;;;66.57;10.05;;;19.70;72.40;;;;;;5503361;26;20461;-57
2024/04/09 05:30:02;;;;;;;54.47;8.27;;;19.70;73.00;;;;;;5503949;26;19994;-58
2024/04/09 05:32:28;;;;;;;49.20;7.97;;;19.70;73.40;;;;;;5473808;26;20012;-58
2024/04/09 05:34:54;;;;;;;46.42;6.90;;;19.60;73.80;;;;;;5503822;26;19998;-58
2024/04/09 05:37:20;;;;;;;54.80;7.97;;;19.60;73.80;;;;;;5504091;26;20317;-58
2024/04/09 05:39:46;;;;;;;44.00;7.20;;;19.60;74.10;;;;;;5473449;26;20081;-58
2024/04/09 05:42:13;;;;;;;38.72;7.38;;;19.60;74.20;;;;;;5503263;26;20381;-58
2024/04/09 05:44:39;;;;;;;43.05;7.72;;;19.60;74.40;;;;;;5473318;26;20002;-58
2024/04/09 05:47:05;;;;;;;43.53;6.63;;;19.60;74.50;;;;;;5473285;26;19998;-57
2024/04/09 05:49:31;;;;;;;34.38;7.25;;;19.50;74.60;;;;;;5503690;26;19997;-57
2024/04/09 05:51:57;;;;;;;38.58;7.40;;;19.60;74.80;;;;;;5536346;26;20001;-58
2024/04/09 05:54:22;;;;;;;32.20;7.25;;;19.50;74.90;;;;;;5503628;26;20004;-58
2024/04/09 05:56:49;;;;;;;46.78;6.78;;;19.50;74.90;;;;;;5503432;26;19993;-57
2024/04/09 05:59:14;;;;;;;33.05;6.60;;;19.50;74.90;;;;;;5500478;26;20009;-57
2024/04/09 06:01:40;;;;;;;35.97;6.70;;;19.50;75.00;;;;;;5512869;26;20005;-58
2024/04/09 06:04:06;;;;;;;34.00;7.00;;;19.50;75.20;;;;;;5535987;26;19990;-58
2024/04/09 06:06:31;;;;;;;35.42;6.95;;;19.50;75.30;;;;;;5502601;26;19997;-58
2024/04/09 06:08:57;;;;;;;34.85;6.28;;;19.50;75.40;;;;;;5502550;26;19998;-58
2024/04/09 06:11:22;;;;;;;31.05;5.90;;;19.50;75.50;;;;;;5502938;26;19998;-58
2024/04/09 06:13:52;;;;;;;28.17;5.97;;;19.40;75.60;;;;;;5534731;26;20416;-58
2024/04/09 06:16:18;;;;;;;34.15;6.63;;;19.50;75.70;;;;;;5436913;25;20006;-58
2024/04/09 06:18:43;;;;;;;28.98;5.50;;;19.40;75.80;;;;;;5499601;26;20365;-58
2024/04/09 06:21:09;;;;;;;27.50;5.15;;;19.50;75.90;;;;;;5531681;26;20005;-57
2024/04/09 06:23:35;;;;;;;27.38;5.90;;;19.50;75.90;;;;;;5531608;26;19994;-58
2024/04/09 06:26:01;;;;;;;35.83;6.28;;;19.50;76.00;;;;;;5531415;26;20042;-58
2024/04/09 06:28:27;;;;;;;34.90;6.03;;;19.50;76.10;;;;;;5498030;26;20032;-58
2024/04/09 06:30:52;;;;;;;31.70;5.82;;;19.50;76.20;;;;;;5462643;26;19994;-58
2024/04/09 06:33:18;;;;;;;24.85;5.03;;;19.50;76.20;;;;;;5492622;26;19994;-58
2024/04/09 06:35:44;;;;;;;40.10;4.57;;;19.50;76.50;;;;;;5534738;26;20527;-58
2024/04/09 06:38:10;;;;;;;36.75;6.70;;;19.50;76.50;;;;;;5502337;26;20121;-58
2024/04/09 06:40:36;;;;;;;34.33;5.72;;;19.40;76.30;;;;;;5500748;26;19993;-58
2024/04/09 06:43:02;;;;;;;27.23;4.90;;;19.40;75.90;;;;;;5471323;26;20001;-58
2024/04/09 06:45:28;;;;;;;36.53;4.10;;;19.40;75.60;;;;;;5498940;26;20445;-58
2024/04/09 06:47:54;;;;;;;36.42;4.72;;;19.40;75.40;;;;;;5500276;26;19996;-58
2024/04/09 06:50:20;;;;;;;33.33;5.00;;;19.40;75.20;;;;;;5471308;26;20301;-58
2024/04/09 06:52:45;;;;;;;46.63;4.65;;;19.30;75.00;;;;;;5501708;26;19997;-58
2024/04/09 06:55:11;;;;;;;39.85;4.72;;;19.30;74.80;;;;;;5492183;26;20029;-57
2024/04/09 06:57:37;;;;;;;34.65;4.18;;;19.30;74.80;;;;;;5502493;26;20002;-58
2024/04/09 07:00:04;;;;;;;46.20;5.53;;;19.30;74.80;;;;;;5482593;26;20070;-58
2024/04/09 07:02:30;;;;;;;67.40;7.25;;;19.20;74.70;;;;;;5533973;25;20017;-58
2024/04/09 07:04:55;;;;;;;50.85;5.05;;;19.20;74.40;;;;;;5481975;26;20015;-59
2024/04/09 07:07:29;;;;;;;48.58;6.18;;;19.20;74.20;;;;;;5439783;26;20057;-58
2024/04/09 07:20:04;;;;;;;52.50;6.35;;;19.10;74.00;;;;;;5537137;26;20004;-58
2024/04/09 07:29:14;;;;;;;28.15;4.47;;;19.00;73.50;;;;;;5535317;26;20066;-58
2024/04/09 07:31:40;;;;;;;36.28;4.65;;;19.00;73.40;;;;;;5502043;26;20021;-58
2024/04/09 07:34:05;;;;;;;45.28;5.22;;;19.00;73.30;;;;;;5474988;26;20016;-59
2024/04/09 07:36:31;;;;;;;43.58;4.57;;;18.90;73.10;;;;;;5537682;26;19998;-59
2024/04/09 07:38:57;;;;;;;111.38;10.23;;;18.90;73.00;;;;;;5468173;26;20017;-58
2024/04/09 07:41:23;;;;;;;48.55;4.97;;;18.90;72.80;;;;;;5469021;26;20039;-58
2024/04/09 07:43:51;;;;;;;53.83;5.63;;;18.80;72.60;;;;;;5495924;26;20067;-59
2024/04/09 07:46:20;;;;;;;38.88;3.78;;;18.80;72.60;;;;;;5536918;26;20002;-58
2024/04/09 07:48:46;;;;;;;60.47;5.78;;;18.80;72.50;;;;;;5500313;26;19997;-59
2024/04/09 07:51:11;;;;;;;56.33;6.07;;;18.80;72.20;;;;;;5503701;26;20008;-58
2024/04/09 07:53:41;;;;;;;40.53;4.55;;;18.70;72.10;;;;;;5489589;26;19990;-58
2024/04/09 07:56:08;;;;;;;33.50;5.18;;;18.70;72.00;;;;;;5459748;26;20004;-59
2024/04/09 07:58:33;;;;;;;62.92;5.38;;;18.60;71.90;;;;;;5494263;26;19997;-58
2024/04/09 08:00:59;;;;;;;39.50;5.03;;;18.60;71.70;;;;;;5535978;25;20035;-58
2024/04/09 08:03:25;;;;;;;73.57;7.85;;;18.60;71.70;;;;;;5500798;26;20002;-59
2024/04/09 08:05:50;;;;;;;32.67;4.50;;;18.50;71.70;;;;;;5496548;26;20009;-58
2024/04/09 08:08:16;;;;;;;48.60;4.65;;;18.40;71.60;;;;;;5503707;26;19998;-58
2024/04/09 08:10:45;;;;;;;59.30;5.47;;;18.40;71.60;;;;;;5497545;26;19994;-58
2024/04/09 08:13:11;;;;;;;29.92;4.30;;;18.30;72.30;;;;;;5535955;26;20002;-58
2024/04/09 08:15:37;;;;;;;42.42;5.22;;;18.30;71.50;;;;;;5478582;26;20425;-58
2024/04/09 08:18:03;;;;;;;50.10;5.15;;;18.30;71.50;;;;;;5471773;26;20015;-58
2024/04/09 08:20:28;;;;;;;42.50;4.00;;;18.30;71.60;;;;;;5505912;25;20005;-59
2024/04/09 08:22:54;;;;;;;37.00;5.18;;;18.20;71.50;;;;;;5509772;26;20014;-59
2024/04/09 08:25:20;;;;;;;43.38;4.72;;;18.30;72.30;;;;;;5482670;26;20064;-59
2024/04/09 08:27:46;;;;;;;36.97;5.05;;;18.20;71.70;;;;;;5485716;26;20068;-58
2024/04/09 08:30:12;;;;;;;44.50;5.80;;;18.20;71.60;;;;;;5481861;25;20073;-59
2024/04/09 08:32:38;;;;;;;49.80;5.22;;;18.20;71.80;;;;;;5446044;26;20016;-59
2024/04/09 08:35:04;;;;;;;65.13;6.15;;;18.10;72.00;;;;;;5472337;25;21728;-58
2024/04/09 08:37:30;;;;;;;44.92;5.50;;;18.10;71.90;;;;;;5512128;26;20012;-58
2024/04/09 08:39:56;;;;;;;50.50;6.50;;;18.10;72.00;;;;;;5506115;25;21645;-58
2024/04/09 08:42:25;;;;;;;59.08;5.40;;;18.10;72.80;;;;;;5480963;26;20082;-58
2024/04/09 08:44:51;;;;;;;58.78;6.28;;;18.10;72.00;;;;;;5479359;26;19994;-58
2024/04/09 08:47:18;;;;;;;60.92;5.15;;;18.10;72.10;;;;;;5448832;26;20020;-58
2024/04/09 08:49:44;;;;;;;58.08;5.32;;;18.10;72.30;;;;;;5490389;26;20008;-58
2024/04/09 08:52:10;;;;;;;48.10;4.78;;;18.00;72.30;;;;;;5444566;26;19993;-58
2024/04/09 08:54:36;;;;;;;49.05;4.75;;;18.10;72.50;;;;;;5489510;26;20009;-59
2024/04/09 08:57:01;;;;;;;50.50;5.78;;;18.00;72.50;;;;;;5468122;26;20002;-57
2024/04/09 08:59:29;;;;;;;37.20;4.57;;;18.00;72.60;;;;;;5493858;26;20013;-58
2024/04/09 09:01:56;;;;;;;57.92;4.90;;;18.00;72.50;;;;;;5508324;25;20111;-58
2024/04/09 09:04:21;;;;;;;53.28;4.60;;;18.00;72.70;;;;;;5505806;25;20009;-59
2024/04/09 09:06:47;;;;;;;45.28;4.90;;;17.90;72.80;;;;;;5481906;26;20439;-58
2024/04/09 09:09:27;;;;;;;44.80;4.43;;;17.90;72.90;;;;;;5505751;26;19997;-58
2024/04/09 09:12:01;;;;;;;35.78;3.92;;;17.90;72.80;;;;;;5501741;26;19993;-58
2024/04/09 09:14:26;;;;;;;40.70;5.22;;;17.90;72.90;;;;;;5485732;26;20054;-58
2024/04/09 09:16:58;;;;;;;48.10;5.88;;;17.90;73.00;;;;;;5504403;25;20071;-58
2024/04/09 09:19:24;;;;;;;38.67;4.88;;;17.90;73.00;;;;;;5475451;25;20014;-58
2024/04/09 09:21:50;;;;;;;48.88;4.35;;;17.90;73.00;;;;;;5507102;26;20077;-58
2024/04/09 09:24:17;;;;;;;38.75;3.53;;;17.90;73.00;;;;;;5519866;26;20118;-58
2024/04/09 09:26:42;;;;;;;31.55;4.03;;;17.80;72.90;;;;;;5470774;26;20004;-58
2024/04/09 09:29:08;;;;;;;26.95;3.90;;;17.80;73.00;;;;;;5501725;26;20004;-58
2024/04/09 09:31:39;;;;;;;42.08;4.95;;;17.80;73.10;;;;;;5549407;25;20020;-58
2024/04/09 09:34:07;;;;;;;46.55;4.60;;;17.80;73.10;;;;;;5477391;26;20050;-58
2024/04/09 09:36:33;;;;;;;43.42;6.25;;;17.70;73.10;;;;;;5493862;25;20001;-58
2024/04/09 09:38:59;;;;;;;46.65;5.10;;;17.70;73.10;;;;;;5468724;26;20434;-58
2024/04/09 09:41:25;;;;;;;39.33;3.70;;;17.70;73.30;;;;;;5435979;26;19998;-58
2024/04/09 09:43:51;;;;;;;66.30;6.38;;;17.60;73.20;;;;;;5488831;26;20041;-59
2024/04/09 09:46:16;;;;;;;49.05;5.07;;;17.60;73.40;;;;;;5465126;26;20005;-59
2024/04/09 09:48:42;;;;;;;52.95;4.47;;;17.60;73.40;;;;;;5433706;26;20090;-58
2024/04/09 09:51:08;;;;;;;45.33;3.95;;;17.60;73.50;;;;;;5435504;26;20409;-58
2024/04/09 09:53:33;;;;;;;163.75;16.90;;;17.50;73.50;;;;;;5500755;26;20428;-59
2024/04/09 09:56:00;;;;;;;30.45;3.88;;;17.50;73.40;;;;;;5434499;26;20013;-59
2024/04/09 09:58:28;;;;;;;38.28;4.25;;;17.50;73.40;;;;;;5439089;26;20017;-58
2024/04/09 10:00:53;;;;;;;39.78;3.72;;;17.50;73.50;;;;;;5444206;26;20211;-59
2024/04/09 10:03:20;;;;;;;36.67;4.47;;;17.50;73.60;;;;;;5468779;26;20067;-59
2024/04/09 10:05:45;;;;;;;57.28;6.30;;;17.50;73.70;;;;;;5467879;26;20020;-58
2024/04/09 10:08:17;;;;;;;97.03;10.93;;;17.40;73.60;;;;;;5443063;26;20001;-58
2024/04/09 10:10:42;;;;;;;69.13;6.85;;;17.40;73.80;;;;;;5509959;25;20295;-58
2024/04/09 10:13:08;;;;;;;86.68;7.30;;;17.40;73.70;;;;;;5545857;25;20073;-58
2024/04/09 10:15:34;;;;;;;139.70;14.52;;;17.40;73.70;;;;;;5499239;26;20050;-58
2024/04/09 10:18:06;;;;;;;121.97;11.35;;;17.30;73.90;;;;;;5500368;26;19993;-58
2024/04/09 10:20:36;;;;;;;141.80;16.38;;;17.30;74.00;;;;;;5503601;25;20009;-58
2024/04/09 10:23:02;;;;;;;81.50;11.05;;;17.30;74.00;;;;;;5493072;26;20002;-58
2024/04/09 10:25:41;;;;;;;149.45;15.95;;;17.20;74.00;;;;;;5474747;26;19993;-59
2024/04/09 10:28:14;;;;;;;86.75;8.85;;;17.20;73.90;;;;;;5458932;26;20092;-60
2024/04/09 10:30:46;;;;;;;57.78;6.80;;;17.10;73.90;;;;;;5504138;26;20005;-58
2024/04/09 10:33:11;;;;;;;52.60;5.55;;;17.10;73.90;;;;;;5460038;26;20013;-58
2024/04/09 10:35:43;;;;;;;65.18;6.18;;;17.10;73.90;;;;;;5461634;26;20005;-58
2024/04/09 10:38:10;;;;;;;44.45;6.25;;;17.10;74.10;;;;;;5478022;26;20479;-58
2024/04/09 10:40:36;;;;;;;63.92;5.68;;;17.10;74.10;;;;;;5451025;26;20002;-58
2024/04/09 10:43:02;;;;;;;74.60;5.15;;;17.10;74.10;;;;;;5520378;26;20016;-58
2024/04/09 10:45:31;;;;;;;39.42;4.85;;;17.10;74.00;;;;;;5489976;26;20009;-59
2024/04/09 10:47:57;;;;;;;55.65;4.18;;;17.00;73.90;;;;;;5546827;25;20070;-58
2024/04/09 10:50:23;;;;;;;28.92;3.88;;;17.10;74.00;;;;;;5466795;26;20523;-58
2024/04/09 10:52:48;;;;;;;41.10;4.95;;;17.00;74.00;;;;;;5489652;26;20028;-59
2024/04/09 10:55:15;;;;;;;27.52;4.18;;;17.00;74.20;;;;;;5485261;26;19993;-59
2024/04/09 10:57:40;;;;;;;41.40;4.63;;;17.00;74.30;;;;;;5499518;26;20046;-59
2024/04/09 11:00:10;;;;;;;29.35;4.13;;;17.00;74.30;;;;;;5503492;26;20025;-59
2024/04/09 11:02:37;;;;;;;45.97;4.88;;;17.00;74.50;;;;;;5462453;26;20005;-58
2024/04/09 11:05:06;;;;;;;44.15;4.93;;;17.00;74.50;;;;;;5521515;26;20047;-59
2024/04/09 11:07:39;;;;;;;32.38;3.67;;;17.00;74.60;;;;;;5534625;26;20007;-59
2024/04/09 11:10:06;;;;;;;41.10;4.43;;;17.00;74.50;;;;;;5502821;26;20001;-58
2024/04/09 11:12:32;;;;;;;37.53;3.88;;;16.90;74.50;;;;;;5470370;26;20074;-59
2024/04/09 11:14:58;;;;;;;31.05;3.97;;;16.90;74.60;;;;;;5472646;26;20419;-61
2024/04/09 11:17:24;;;;;;;34.25;3.72;;;16.90;74.70;;;;;;5472845;26;19998;-59
2024/04/09 11:19:49;;;;;;;30.05;4.55;;;16.80;74.80;;;;;;5536811;26;19997;-59
2024/04/09 11:22:15;;;;;;;27.45;3.25;;;16.80;74.90;;;;;;5533655;26;20021;-59
2024/04/09 11:24:43;;;;;;;26.42;4.00;;;16.80;75.00;;;;;;5466112;26;20424;-59
2024/04/09 11:27:09;;;;;;;33.75;3.85;;;16.80;75.10;;;;;;5500243;26;20004;-59
2024/04/09 11:29:35;;;;;;;35.63;5.03;;;16.80;75.20;;;;;;5472972;26;20005;-59
2024/04/09 11:32:04;;;;;;;26.13;3.92;;;16.80;76.00;;;;;;5465757;26;20009;-59
2024/04/09 11:34:30;;;;;;;35.50;3.80;;;16.90;75.40;;;;;;5497316;26;19998;-59
2024/04/09 11:36:58;;;;;;;40.50;4.50;;;16.80;75.90;;;;;;5495142;26;20447;-58
2024/04/09 11:39:24;;;;;;;38.38;3.75;;;16.80;75.40;;;;;;5505660;26;20017;-59
2024/04/09 11:41:50;;;;;;;38.22;5.13;;;16.80;75.30;;;;;;5497733;26;20297;-59
2024/04/09 11:44:22;;;;;;;32.42;4.60;;;16.80;75.40;;;;;;5536298;26;20136;-59
2024/04/09 11:46:48;;;;;;;35.17;4.40;;;16.80;75.30;;;;;;5500843;26;20038;-59
2024/04/09 11:49:13;;;;;;;42.47;4.63;;;16.80;75.30;;;;;;5494963;26;20012;-59
2024/04/09 11:51:39;;;;;;;50.65;4.40;;;16.80;75.40;;;;;;5503563;26;20717;-59
2024/04/09 11:54:06;;;;;;;40.35;5.03;;;16.80;75.50;;;;;;5462743;26;20002;-59
2024/04/09 11:56:32;;;;;;;42.63;4.65;;;16.70;75.50;;;;;;5483260;26;20009;-59
2024/04/09 11:58:58;;;;;;;50.85;6.05;;;16.70;75.70;;;;;;5453715;26;20009;-59
2024/04/09 12:01:24;;;;;;;42.78;6.32;;;16.70;75.60;;;;;;5530881;25;20004;-59
2024/04/09 12:03:49;;;;;;;41.28;5.85;;;16.70;75.70;;;;;;5434526;26;20017;-59
2024/04/09 12:06:15;;;;;;;54.10;5.95;;;16.70;75.70;;;;;;5490582;26;20005;-59
2024/04/09 12:08:41;;;;;;;60.85;6.80;;;16.70;75.80;;;;;;5469552;25;20444;-59
2024/04/09 12:11:06;;;;;;;56.22;5.55;;;16.70;75.80;;;;;;5524203;25;20009;-59
2024/04/09 12:13:32;;;;;;;49.58;6.80;;;16.70;75.80;;;;;;5484047;26;20328;-59
2024/04/09 12:15:59;;;;;;;59.15;6.45;;;16.70;75.80;;;;;;5456233;25;20360;-59
2024/04/09 12:18:24;;;;;;;77.55;8.23;;;16.60;75.80;;;;;;5470099;26;19993;-59
2024/04/09 12:20:50;;;;;;;96.43;9.20;;;16.60;75.90;;;;;;5532291;26;20004;-59
2024/04/09 12:23:15;;;;;;;78.10;8.40;;;16.60;75.80;;;;;;5466286;26;20001;-59
2024/04/09 12:25:41;;;;;;;63.08;8.25;;;16.60;76.20;;;;;;5451856;26;20005;-59
2024/04/09 12:28:07;;;;;;;113.03;10.20;;;16.50;76.00;;;;;;5490605;26;20071;-59
2024/04/09 12:30:33;;;;;;;83.78;9.65;;;16.50;76.20;;;;;;5500367;26;20009;-59
2024/04/09 12:32:59;;;;;;;79.47;8.88;;;16.60;76.20;;;;;;5498770;26;19990;-59
2024/04/09 12:35:24;;;;;;;122.20;10.32;;;16.50;76.20;;;;;;5488976;26;20002;-59
2024/04/09 12:37:50;;;;;;;68.97;6.93;;;16.60;76.10;;;;;;5464883;26;19997;-59
2024/04/09 12:40:16;;;;;;;82.13;7.60;;;16.50;75.70;;;;;;5511138;26;20006;-59
2024/04/09 12:42:41;;;;;;;64.40;7.07;;;16.40;75.50;;;;;;5487093;26;20429;-59
2024/04/09 12:45:07;;;;;;;57.10;7.00;;;16.40;75.40;;;;;;5488587;26;19997;-58
2024/04/09 12:47:33;;;;;;;59.20;6.45;;;16.40;75.30;;;;;;5466116;26;20012;-59
2024/04/09 12:49:58;;;;;;;50.38;5.40;;;16.40;75.40;;;;;;5472149;26;20046;-59